sensor_id;sensor_type;location;lat;lon;timestamp;temperature;humidity
72202;SHT30;60105;54.956;73.412;2022-10-31T00:01:34;-2.61;82.04
72202;SHT30;60105;54.956;73.412;2022-10-31T00:04:02;-2.59;81.59
72202;SHT30;60105;54.956;73.412;2022-10-31T00:06:28;-2.66;81.88
72202;SHT30;60105;54.956;73.412;2022-10-31T00:08:57;-2.63;81.97
72202;SHT30;60105;54.956;73.412;2022-10-31T00:11:24;-2.66;81.93
72202;SHT30;60105;54.956;73.412;2022-10-31T00:13:51;-2.68;82.36
72202;SHT30;60105;54.956;73.412;2022-10-31T00:16:28;-2.65;82.29
72202;SHT30;60105;54.956;73.412;2022-10-31T00:18:56;-2.59;81.98
72202;SHT30;60105;54.956;73.412;2022-10-31T00:21:29;-2.69;81.77
72202;SHT30;60105;54.956;73.412;2022-10-31T00:23:59;-2.70;82.14
72202;SHT30;60105;54.956;73.412;2022-10-31T00:26:30;-2.72;81.81
72202;SHT30;60105;54.956;73.412;2022-10-31T00:29:07;-2.66;82.07
72202;SHT30;60105;54.956;73.412;2022-10-31T00:31:43;-2.69;81.71
72202;SHT30;60105;54.956;73.412;2022-10-31T00:34:10;-2.68;81.94
72202;SHT30;60105;54.956;73.412;2022-10-31T00:36:36;-2.69;81.85
72202;SHT30;60105;54.956;73.412;2022-10-31T00:39:02;-2.70;81.70
72202;SHT30;60105;54.956;73.412;2022-10-31T00:41:28;-2.69;81.62
72202;SHT30;60105;54.956;73.412;2022-10-31T00:43:55;-2.76;81.73
72202;SHT30;60105;54.956;73.412;2022-10-31T00:46:23;-2.69;81.79
72202;SHT30;60105;54.956;73.412;2022-10-31T00:48:50;-2.68;81.19
72202;SHT30;60105;54.956;73.412;2022-10-31T00:51:16;-2.70;81.34
72202;SHT30;60105;54.956;73.412;2022-10-31T00:53:42;-2.69;81.37
72202;SHT30;60105;54.956;73.412;2022-10-31T00:56:08;-2.72;81.42
72202;SHT30;60105;54.956;73.412;2022-10-31T00:58:35;-2.73;81.43
72202;SHT30;60105;54.956;73.412;2022-10-31T01:01:01;-2.77;81.52
72202;SHT30;60105;54.956;73.412;2022-10-31T01:03:30;-2.77;81.82
72202;SHT30;60105;54.956;73.412;2022-10-31T01:06:04;-2.68;81.59
72202;SHT30;60105;54.956;73.412;2022-10-31T01:08:32;-2.70;81.20
72202;SHT30;60105;54.956;73.412;2022-10-31T01:13:42;-2.75;81.88
72202;SHT30;60105;54.956;73.412;2022-10-31T01:16:12;-2.70;82.03
72202;SHT30;60105;54.956;73.412;2022-10-31T01:18:39;-2.68;81.64
72202;SHT30;60105;54.956;73.412;2022-10-31T01:21:19;-2.65;81.75
72202;SHT30;60105;54.956;73.412;2022-10-31T01:23:49;-2.66;81.15
72202;SHT30;60105;54.956;73.412;2022-10-31T01:26:26;-2.70;81.21
72202;SHT30;60105;54.956;73.412;2022-10-31T01:29:05;-2.62;81.50
72202;SHT30;60105;54.956;73.412;2022-10-31T01:31:35;-2.58;81.55
72202;SHT30;60105;54.956;73.412;2022-10-31T01:34:02;-2.51;81.57
72202;SHT30;60105;54.956;73.412;2022-10-31T01:36:34;-2.61;80.77
72202;SHT30;60105;54.956;73.412;2022-10-31T01:39:07;-2.63;81.01
72202;SHT30;60105;54.956;73.412;2022-10-31T01:41:36;-2.63;81.31
72202;SHT30;60105;54.956;73.412;2022-10-31T01:54:47;-2.41;80.40
72202;SHT30;60105;54.956;73.412;2022-10-31T01:57:15;-2.37;80.27
72202;SHT30;60105;54.956;73.412;2022-10-31T01:59:46;-2.40;80.57
72202;SHT30;60105;54.956;73.412;2022-10-31T02:02:15;-2.35;80.19
72202;SHT30;60105;54.956;73.412;2022-10-31T02:04:43;-2.25;80.34
72202;SHT30;60105;54.956;73.412;2022-10-31T02:07:13;-2.18;79.85
72202;SHT30;60105;54.956;73.412;2022-10-31T02:09:40;-2.15;79.68
72202;SHT30;60105;54.956;73.412;2022-10-31T02:12:13;-2.11;79.35
72202;SHT30;60105;54.956;73.412;2022-10-31T02:14:40;-2.10;79.56
72202;SHT30;60105;54.956;73.412;2022-10-31T02:17:06;-1.98;79.85
72202;SHT30;60105;54.956;73.412;2022-10-31T02:19:54;-1.91;79.14
72202;SHT30;60105;54.956;73.412;2022-10-31T02:25:35;-1.87;79.26
72202;SHT30;60105;54.956;73.412;2022-10-31T02:28:52;-1.77;79.13
72202;SHT30;60105;54.956;73.412;2022-10-31T02:34:06;-1.67;78.59
72202;SHT30;60105;54.956;73.412;2022-10-31T02:36:42;-1.63;78.03
72202;SHT30;60105;54.956;73.412;2022-10-31T02:39:24;-1.56;78.02
72202;SHT30;60105;54.956;73.412;2022-10-31T02:42:07;-1.39;77.64
72202;SHT30;60105;54.956;73.412;2022-10-31T02:44:50;-1.39;77.61
72202;SHT30;60105;54.956;73.412;2022-10-31T02:47:20;-1.41;78.01
72202;SHT30;60105;54.956;73.412;2022-10-31T02:49:54;-1.34;77.81
72202;SHT30;60105;54.956;73.412;2022-10-31T02:52:28;-1.27;77.53
72202;SHT30;60105;54.956;73.412;2022-10-31T02:57:49;-1.24;77.59
72202;SHT30;60105;54.956;73.412;2022-10-31T03:00:19;-1.24;77.99
72202;SHT30;60105;54.956;73.412;2022-10-31T03:08:38;-1.30;79.26
72202;SHT30;60105;54.956;73.412;2022-10-31T03:11:08;-1.28;79.17
72202;SHT30;60105;54.956;73.412;2022-10-31T03:13:49;-1.32;79.09
72202;SHT30;60105;54.956;73.412;2022-10-31T03:19:05;-1.30;78.80
72202;SHT30;60105;54.956;73.412;2022-10-31T03:21:33;-1.31;78.88
72202;SHT30;60105;54.956;73.412;2022-10-31T03:24:01;-1.24;78.89
72202;SHT30;60105;54.956;73.412;2022-10-31T03:26:30;-1.22;78.55
72202;SHT30;60105;54.956;73.412;2022-10-31T03:29:02;-1.31;79.14
72202;SHT30;60105;54.956;73.412;2022-10-31T03:31:54;-1.31;78.90
72202;SHT30;60105;54.956;73.412;2022-10-31T03:34:22;-1.32;79.45
72202;SHT30;60105;54.956;73.412;2022-10-31T03:36:56;-1.30;79.35
72202;SHT30;60105;54.956;73.412;2022-10-31T03:39:23;-1.25;79.12
72202;SHT30;60105;54.956;73.412;2022-10-31T03:41:59;-1.24;78.98
72202;SHT30;60105;54.956;73.412;2022-10-31T03:44:38;-1.28;79.18
72202;SHT30;60105;54.956;73.412;2022-10-31T03:47:07;-1.22;79.12
72202;SHT30;60105;54.956;73.412;2022-10-31T03:49:39;-1.22;78.18
72202;SHT30;60105;54.956;73.412;2022-10-31T03:54:53;-1.18;78.73
72202;SHT30;60105;54.956;73.412;2022-10-31T04:00:07;-1.16;78.76
72202;SHT30;60105;54.956;73.412;2022-10-31T04:03:05;-1.22;79.00
72202;SHT30;60105;54.956;73.412;2022-10-31T04:05:35;-1.19;78.60
72202;SHT30;60105;54.956;73.412;2022-10-31T04:08:07;-1.22;78.52
72202;SHT30;60105;54.956;73.412;2022-10-31T04:10:37;-1.21;79.17
72202;SHT30;60105;54.956;73.412;2022-10-31T04:13:08;-1.18;78.84
72202;SHT30;60105;54.956;73.412;2022-10-31T04:15:44;-1.11;78.91
72202;SHT30;60105;54.956;73.412;2022-10-31T04:18:12;-1.15;78.51
72202;SHT30;60105;54.956;73.412;2022-10-31T04:20:40;-1.18;79.06
72202;SHT30;60105;54.956;73.412;2022-10-31T04:25:42;-1.09;78.73
72202;SHT30;60105;54.956;73.412;2022-10-31T04:28:09;-1.16;79.16
72202;SHT30;60105;54.956;73.412;2022-10-31T04:30:45;-1.14;78.90
72202;SHT30;60105;54.956;73.412;2022-10-31T04:33:11;-1.09;80.01
72202;SHT30;60105;54.956;73.412;2022-10-31T04:35:38;-1.08;79.51
72202;SHT30;60105;54.956;73.412;2022-10-31T04:38:10;-0.98;79.69
72202;SHT30;60105;54.956;73.412;2022-10-31T04:40:38;-0.97;79.38
72202;SHT30;60105;54.956;73.412;2022-10-31T04:43:23;-0.91;79.73
72202;SHT30;60105;54.956;73.412;2022-10-31T04:45:49;-0.73;78.74
72202;SHT30;60105;54.956;73.412;2022-10-31T04:48:16;-0.69;78.52
72202;SHT30;60105;54.956;73.412;2022-10-31T04:50:44;-0.67;78.43
72202;SHT30;60105;54.956;73.412;2022-10-31T04:53:12;-0.60;77.62
72202;SHT30;60105;54.956;73.412;2022-10-31T04:55:59;-0.70;77.32
72202;SHT30;60105;54.956;73.412;2022-10-31T04:58:41;-0.64;77.54
72202;SHT30;60105;54.956;73.412;2022-10-31T05:01:09;-0.60;77.84
72202;SHT30;60105;54.956;73.412;2022-10-31T05:03:35;-0.59;77.10
72202;SHT30;60105;54.956;73.412;2022-10-31T05:06:02;-0.50;77.55
72202;SHT30;60105;54.956;73.412;2022-10-31T05:08:30;-0.46;77.41
72202;SHT30;60105;54.956;73.412;2022-10-31T05:11:04;-0.42;77.51
72202;SHT30;60105;54.956;73.412;2022-10-31T05:13:31;-0.39;76.35
72202;SHT30;60105;54.956;73.412;2022-10-31T05:16:16;-0.33;76.07
72202;SHT30;60105;54.956;73.412;2022-10-31T05:19:06;-0.45;76.57
72202;SHT30;60105;54.956;73.412;2022-10-31T05:22:08;-0.45;77.76
72202;SHT30;60105;54.956;73.412;2022-10-31T05:24:35;-0.63;77.32
72202;SHT30;60105;54.956;73.412;2022-10-31T05:27:02;-0.53;77.94
72202;SHT30;60105;54.956;73.412;2022-10-31T05:29:28;-0.36;77.09
72202;SHT30;60105;54.956;73.412;2022-10-31T05:31:54;-0.28;76.31
72202;SHT30;60105;54.956;73.412;2022-10-31T05:34:40;-0.22;76.06
72202;SHT30;60105;54.956;73.412;2022-10-31T05:37:35;0.02;76.13
72202;SHT30;60105;54.956;73.412;2022-10-31T05:40:06;0.09;75.03
72202;SHT30;60105;54.956;73.412;2022-10-31T05:42:34;0.02;74.73
72202;SHT30;60105;54.956;73.412;2022-10-31T05:45:00;0.12;75.55
72202;SHT30;60105;54.956;73.412;2022-10-31T05:47:59;0.17;75.26
72202;SHT30;60105;54.956;73.412;2022-10-31T05:50:50;0.17;76.16
72202;SHT30;60105;54.956;73.412;2022-10-31T05:53:16;0.19;76.09
72202;SHT30;60105;54.956;73.412;2022-10-31T05:55:43;0.13;75.48
72202;SHT30;60105;54.956;73.412;2022-10-31T05:58:21;0.10;76.13
72202;SHT30;60105;54.956;73.412;2022-10-31T06:01:06;0.16;75.91
72202;SHT30;60105;54.956;73.412;2022-10-31T06:03:32;0.10;76.46
72202;SHT30;60105;54.956;73.412;2022-10-31T06:06:06;0.19;75.87
72202;SHT30;60105;54.956;73.412;2022-10-31T06:08:37;0.09;76.39
72202;SHT30;60105;54.956;73.412;2022-10-31T06:11:12;0.16;76.64
72202;SHT30;60105;54.956;73.412;2022-10-31T06:14:00;0.17;77.38
72202;SHT30;60105;54.956;73.412;2022-10-31T06:16:36;0.10;76.77
72202;SHT30;60105;54.956;73.412;2022-10-31T06:19:32;0.02;77.30
72202;SHT30;60105;54.956;73.412;2022-10-31T06:22:04;-0.06;77.40
72202;SHT30;60105;54.956;73.412;2022-10-31T06:24:31;-0.18;77.66
72202;SHT30;60105;54.956;73.412;2022-10-31T06:27:06;-0.12;77.86
72202;SHT30;60105;54.956;73.412;2022-10-31T06:29:32;-0.05;78.00
72202;SHT30;60105;54.956;73.412;2022-10-31T06:32:10;-0.12;78.14
72202;SHT30;60105;54.956;73.412;2022-10-31T06:34:41;-0.01;78.22
72202;SHT30;60105;54.956;73.412;2022-10-31T06:37:10;0.12;77.22
72202;SHT30;60105;54.956;73.412;2022-10-31T06:39:39;0.16;77.06
72202;SHT30;60105;54.956;73.412;2022-10-31T06:42:07;0.29;76.40
72202;SHT30;60105;54.956;73.412;2022-10-31T06:44:34;0.39;76.30
72202;SHT30;60105;54.956;73.412;2022-10-31T06:47:29;0.09;76.57
72202;SHT30;60105;54.956;73.412;2022-10-31T06:50:00;-0.08;77.24
72202;SHT30;60105;54.956;73.412;2022-10-31T06:52:26;-0.08;77.41
72202;SHT30;60105;54.956;73.412;2022-10-31T06:54:53;0.06;77.74
72202;SHT30;60105;54.956;73.412;2022-10-31T06:57:20;0.19;77.31
72202;SHT30;60105;54.956;73.412;2022-10-31T06:59:46;0.12;77.17
72202;SHT30;60105;54.956;73.412;2022-10-31T07:02:20;0.17;77.33
72202;SHT30;60105;54.956;73.412;2022-10-31T07:04:48;0.22;77.17
72202;SHT30;60105;54.956;73.412;2022-10-31T07:07:16;0.27;77.11
72202;SHT30;60105;54.956;73.412;2022-10-31T07:09:44;0.43;76.58
72202;SHT30;60105;54.956;73.412;2022-10-31T07:12:13;0.44;75.85
72202;SHT30;60105;54.956;73.412;2022-10-31T07:14:47;0.58;75.27
72202;SHT30;60105;54.956;73.412;2022-10-31T07:17:13;0.57;75.36
72202;SHT30;60105;54.956;73.412;2022-10-31T07:19:43;0.39;74.43
72202;SHT30;60105;54.956;73.412;2022-10-31T07:22:11;0.23;75.56
72202;SHT30;60105;54.956;73.412;2022-10-31T07:24:39;0.16;76.07
72202;SHT30;60105;54.956;73.412;2022-10-31T07:27:24;0.10;76.69
72202;SHT30;60105;54.956;73.412;2022-10-31T07:29:51;0.25;76.76
72202;SHT30;60105;54.956;73.412;2022-10-31T07:32:17;0.27;76.34
72202;SHT30;60105;54.956;73.412;2022-10-31T07:34:55;0.27;76.15
72202;SHT30;60105;54.956;73.412;2022-10-31T07:37:27;0.40;75.76
72202;SHT30;60105;54.956;73.412;2022-10-31T07:39:54;0.49;75.33
72202;SHT30;60105;54.956;73.412;2022-10-31T07:42:21;0.44;75.31
72202;SHT30;60105;54.956;73.412;2022-10-31T07:44:47;0.53;74.61
72202;SHT30;60105;54.956;73.412;2022-10-31T07:47:53;0.57;74.66
72202;SHT30;60105;54.956;73.412;2022-10-31T07:50:38;0.60;74.55
72202;SHT30;60105;54.956;73.412;2022-10-31T07:53:09;0.63;74.77
72202;SHT30;60105;54.956;73.412;2022-10-31T07:55:56;0.58;74.86
72202;SHT30;60105;54.956;73.412;2022-10-31T07:58:28;0.49;74.84
72202;SHT30;60105;54.956;73.412;2022-10-31T08:00:54;0.56;74.69
72202;SHT30;60105;54.956;73.412;2022-10-31T08:03:32;0.58;74.09
72202;SHT30;60105;54.956;73.412;2022-10-31T08:06:05;0.49;74.40
72202;SHT30;60105;54.956;73.412;2022-10-31T08:08:57;0.44;75.04
72202;SHT30;60105;54.956;73.412;2022-10-31T08:11:24;0.50;74.66
72202;SHT30;60105;54.956;73.412;2022-10-31T08:13:50;0.58;74.78
72202;SHT30;60105;54.956;73.412;2022-10-31T08:16:24;0.78;73.89
72202;SHT30;60105;54.956;73.412;2022-10-31T08:19:13;0.60;74.01
72202;SHT30;60105;54.956;73.412;2022-10-31T08:21:59;0.57;74.27
72202;SHT30;60105;54.956;73.412;2022-10-31T08:24:53;0.57;74.09
72202;SHT30;60105;54.956;73.412;2022-10-31T08:27:20;0.52;74.94
72202;SHT30;60105;54.956;73.412;2022-10-31T08:29:46;0.46;74.88
72202;SHT30;60105;54.956;73.412;2022-10-31T08:32:24;0.46;75.16
72202;SHT30;60105;54.956;73.412;2022-10-31T08:34:53;0.42;75.40
72202;SHT30;60105;54.956;73.412;2022-10-31T08:37:38;0.44;75.21
72202;SHT30;60105;54.956;73.412;2022-10-31T08:40:05;0.44;75.58
72202;SHT30;60105;54.956;73.412;2022-10-31T08:42:44;0.63;75.43
72202;SHT30;60105;54.956;73.412;2022-10-31T08:45:22;0.83;74.22
72202;SHT30;60105;54.956;73.412;2022-10-31T08:47:48;0.83;74.34
72202;SHT30;60105;54.956;73.412;2022-10-31T08:50:19;0.78;74.04
72202;SHT30;60105;54.956;73.412;2022-10-31T08:52:46;0.74;74.49
72202;SHT30;60105;54.956;73.412;2022-10-31T08:55:22;0.87;74.22
72202;SHT30;60105;54.956;73.412;2022-10-31T08:58:09;0.91;73.60
72202;SHT30;60105;54.956;73.412;2022-10-31T09:00:42;0.78;73.85
72202;SHT30;60105;54.956;73.412;2022-10-31T09:03:24;0.80;74.36
72202;SHT30;60105;54.956;73.412;2022-10-31T09:05:57;0.84;73.87
72202;SHT30;60105;54.956;73.412;2022-10-31T09:08:23;0.88;74.55
72202;SHT30;60105;54.956;73.412;2022-10-31T09:10:50;1.05;73.54
72202;SHT30;60105;54.956;73.412;2022-10-31T09:13:27;1.22;72.44
72202;SHT30;60105;54.956;73.412;2022-10-31T09:16:15;1.19;72.51
72202;SHT30;60105;54.956;73.412;2022-10-31T09:18:52;1.02;73.18
72202;SHT30;60105;54.956;73.412;2022-10-31T09:21:18;1.09;73.08
72202;SHT30;60105;54.956;73.412;2022-10-31T09:23:51;1.02;72.87
72202;SHT30;60105;54.956;73.412;2022-10-31T09:26:19;0.83;74.82
72202;SHT30;60105;54.956;73.412;2022-10-31T09:28:55;0.91;74.16
72202;SHT30;60105;54.956;73.412;2022-10-31T09:31:23;1.02;73.94
72202;SHT30;60105;54.956;73.412;2022-10-31T09:33:55;1.14;73.24
72202;SHT30;60105;54.956;73.412;2022-10-31T09:36:46;1.25;72.49
72202;SHT30;60105;54.956;73.412;2022-10-31T09:39:23;1.19;72.42
72202;SHT30;60105;54.956;73.412;2022-10-31T09:42:21;1.14;72.90
72202;SHT30;60105;54.956;73.412;2022-10-31T09:50:58;1.26;72.82
72202;SHT30;60105;54.956;73.412;2022-10-31T09:54:12;1.31;72.96
72202;SHT30;60105;54.956;73.412;2022-10-31T09:56:40;1.39;72.57
72202;SHT30;60105;54.956;73.412;2022-10-31T09:59:24;1.39;72.42
72202;SHT30;60105;54.956;73.412;2022-10-31T10:02:29;1.56;72.06
72202;SHT30;60105;54.956;73.412;2022-10-31T10:05:13;1.43;72.09
72202;SHT30;60105;54.956;73.412;2022-10-31T10:10:51;1.22;72.84
72202;SHT30;60105;54.956;73.412;2022-10-31T10:20:16;1.42;71.96
72202;SHT30;60105;54.956;73.412;2022-10-31T10:23:16;1.35;72.46
72202;SHT30;60105;54.956;73.412;2022-10-31T10:25:47;1.45;71.87
72202;SHT30;60105;54.956;73.412;2022-10-31T10:28:23;1.52;71.82
72202;SHT30;60105;54.956;73.412;2022-10-31T10:31:15;1.50;71.68
72202;SHT30;60105;54.956;73.412;2022-10-31T10:36:53;1.36;71.66
72202;SHT30;60105;54.956;73.412;2022-10-31T10:39:25;1.23;71.67
72202;SHT30;60105;54.956;73.412;2022-10-31T10:41:55;1.19;72.16
72202;SHT30;60105;54.956;73.412;2022-10-31T10:44:47;1.19;72.52
72202;SHT30;60105;54.956;73.412;2022-10-31T10:47:41;1.06;72.45
72202;SHT30;60105;54.956;73.412;2022-10-31T10:50:22;1.02;72.96
72202;SHT30;60105;54.956;73.412;2022-10-31T10:55:51;1.04;73.11
72202;SHT30;60105;54.956;73.412;2022-10-31T10:58:25;0.99;73.45
72202;SHT30;60105;54.956;73.412;2022-10-31T11:00:52;1.08;72.59
72202;SHT30;60105;54.956;73.412;2022-10-31T11:03:20;1.04;72.77
72202;SHT30;60105;54.956;73.412;2022-10-31T11:05:55;1.09;72.62
72202;SHT30;60105;54.956;73.412;2022-10-31T11:08:34;1.01;72.83
72202;SHT30;60105;54.956;73.412;2022-10-31T11:14:03;0.94;73.35
72202;SHT30;60105;54.956;73.412;2022-10-31T11:16:44;0.80;73.77
72202;SHT30;60105;54.956;73.412;2022-10-31T11:19:19;0.80;73.93
72202;SHT30;60105;54.956;73.412;2022-10-31T11:21:46;0.75;73.75
72202;SHT30;60105;54.956;73.412;2022-10-31T11:24:24;0.74;74.00
72202;SHT30;60105;54.956;73.412;2022-10-31T11:27:19;0.67;74.06
72202;SHT30;60105;54.956;73.412;2022-10-31T11:29:46;0.68;74.20
72202;SHT30;60105;54.956;73.412;2022-10-31T11:32:20;0.70;74.19
72202;SHT30;60105;54.956;73.412;2022-10-31T11:34:50;0.73;74.28
72202;SHT30;60105;54.956;73.412;2022-10-31T11:37:21;0.64;74.27
72202;SHT30;60105;54.956;73.412;2022-10-31T11:40:02;0.63;74.39
72202;SHT30;60105;54.956;73.412;2022-10-31T11:42:38;0.47;74.80
72202;SHT30;60105;54.956;73.412;2022-10-31T11:45:33;0.50;75.25
72202;SHT30;60105;54.956;73.412;2022-10-31T11:48:01;0.46;75.52
72202;SHT30;60105;54.956;73.412;2022-10-31T11:50:41;0.50;75.66
72202;SHT30;60105;54.956;73.412;2022-10-31T11:53:16;0.58;75.48
72202;SHT30;60105;54.956;73.412;2022-10-31T11:56:19;0.64;75.23
72202;SHT30;60105;54.956;73.412;2022-10-31T11:58:58;0.71;75.15
72202;SHT30;60105;54.956;73.412;2022-10-31T12:01:28;0.75;74.86
72202;SHT30;60105;54.956;73.412;2022-10-31T12:04:06;0.73;74.94
72202;SHT30;60105;54.956;73.412;2022-10-31T12:06:35;0.77;74.74
72202;SHT30;60105;54.956;73.412;2022-10-31T12:12:05;0.64;75.10
72202;SHT30;60105;54.956;73.412;2022-10-31T12:17:37;0.61;75.32
72202;SHT30;60105;54.956;73.412;2022-10-31T12:28:57;0.65;75.34
72202;SHT30;60105;54.956;73.412;2022-10-31T12:31:50;0.57;75.43
72202;SHT30;60105;54.956;73.412;2022-10-31T12:37:30;0.44;75.84
72202;SHT30;60105;54.956;73.412;2022-10-31T12:40:32;0.44;75.98
72202;SHT30;60105;54.956;73.412;2022-10-31T12:52:27;0.37;76.36
72202;SHT30;60105;54.956;73.412;2022-10-31T12:55:15;0.29;76.76
72202;SHT30;60105;54.956;73.412;2022-10-31T12:57:54;0.16;77.16
72202;SHT30;60105;54.956;73.412;2022-10-31T13:00:29;0.20;77.53
72202;SHT30;60105;54.956;73.412;2022-10-31T13:03:09;0.17;77.16
72202;SHT30;60105;54.956;73.412;2022-10-31T13:05:46;0.19;76.98
72202;SHT30;60105;54.956;73.412;2022-10-31T13:08:20;0.15;77.22
72202;SHT30;60105;54.956;73.412;2022-10-31T13:11:15;0.09;77.53
72202;SHT30;60105;54.956;73.412;2022-10-31T13:14:09;0.15;77.68
72202;SHT30;60105;54.956;73.412;2022-10-31T13:16:48;0.23;77.60
72202;SHT30;60105;54.956;73.412;2022-10-31T13:22:08;0.13;77.87
72202;SHT30;60105;54.956;73.412;2022-10-31T13:24:40;0.22;77.59
72202;SHT30;60105;54.956;73.412;2022-10-31T13:27:33;0.17;77.42
72202;SHT30;60105;54.956;73.412;2022-10-31T13:35:48;0.16;77.56
72202;SHT30;60105;54.956;73.412;2022-10-31T13:38:38;0.16;77.79
72202;SHT30;60105;54.956;73.412;2022-10-31T13:44:16;-0.01;78.16
72202;SHT30;60105;54.956;73.412;2022-10-31T13:46:44;0.02;78.61
72202;SHT30;60105;54.956;73.412;2022-10-31T13:54:38;-0.09;78.64
72202;SHT30;60105;54.956;73.412;2022-10-31T13:57:18;-0.12;79.02
72202;SHT30;60105;54.956;73.412;2022-10-31T14:00:03;-0.04;78.82
72202;SHT30;60105;54.956;73.412;2022-10-31T14:02:45;-0.04;78.97
72202;SHT30;60105;54.956;73.412;2022-10-31T14:05:33;-0.08;78.57
72202;SHT30;60105;54.956;73.412;2022-10-31T14:08:06;-0.11;79.37
72202;SHT30;60105;54.956;73.412;2022-10-31T14:10:49;-0.06;79.00
72202;SHT30;60105;54.956;73.412;2022-10-31T14:16:02;-0.11;79.25
72202;SHT30;60105;54.956;73.412;2022-10-31T14:18:32;-0.02;79.29
72202;SHT30;60105;54.956;73.412;2022-10-31T14:20:59;-0.04;79.19
72202;SHT30;60105;54.956;73.412;2022-10-31T14:26:19;-0.08;79.17
72202;SHT30;60105;54.956;73.412;2022-10-31T14:28:47;-0.09;79.18
72202;SHT30;60105;54.956;73.412;2022-10-31T14:34:37;0.06;78.88
72202;SHT30;60105;54.956;73.412;2022-10-31T14:51:13;0.12;78.39
72202;SHT30;60105;54.956;73.412;2022-10-31T14:53:51;0.05;78.39
72202;SHT30;60105;54.956;73.412;2022-10-31T14:56:23;0.01;78.66
72202;SHT30;60105;54.956;73.412;2022-10-31T14:58:50;-0.01;78.99
72202;SHT30;60105;54.956;73.412;2022-10-31T15:01:30;-0.02;79.01
72202;SHT30;60105;54.956;73.412;2022-10-31T15:04:14;0.03;78.57
72202;SHT30;60105;54.956;73.412;2022-10-31T15:06:44;0.02;79.29
72202;SHT30;60105;54.956;73.412;2022-10-31T15:09:31;0.05;78.59
72202;SHT30;60105;54.956;73.412;2022-10-31T15:12:33;0.09;78.21
72202;SHT30;60105;54.956;73.412;2022-10-31T15:17:56;0.09;78.32
72202;SHT30;60105;54.956;73.412;2022-10-31T15:20:44;0.01;78.42
72202;SHT30;60105;54.956;73.412;2022-10-31T15:23:25;0.06;78.34
72202;SHT30;60105;54.956;73.412;2022-10-31T15:26:01;0.01;78.71
72202;SHT30;60105;54.956;73.412;2022-10-31T15:28:28;-0.04;78.49
72202;SHT30;60105;54.956;73.412;2022-10-31T15:31:03;-0.04;78.87
72202;SHT30;60105;54.956;73.412;2022-10-31T15:33:47;-0.08;78.52
72202;SHT30;60105;54.956;73.412;2022-10-31T15:36:25;0.05;78.02
72202;SHT30;60105;54.956;73.412;2022-10-31T15:38:52;0.16;77.69
72202;SHT30;60105;54.956;73.412;2022-10-31T15:41:31;0.15;77.30
72202;SHT30;60105;54.956;73.412;2022-10-31T15:44:11;0.12;77.27
72202;SHT30;60105;54.956;73.412;2022-10-31T15:46:39;0.06;77.27
72202;SHT30;60105;54.956;73.412;2022-10-31T15:49:18;-0.06;77.55
72202;SHT30;60105;54.956;73.412;2022-10-31T15:51:50;-0.11;77.59
72202;SHT30;60105;54.956;73.412;2022-10-31T15:54:16;-0.16;77.25
72202;SHT30;60105;54.956;73.412;2022-10-31T15:56:43;-0.19;77.68
72202;SHT30;60105;54.956;73.412;2022-10-31T15:59:19;-0.30;77.65
72202;SHT30;60105;54.956;73.412;2022-10-31T16:01:59;-0.40;78.25
72202;SHT30;60105;54.956;73.412;2022-10-31T16:04:26;-0.32;77.72
72202;SHT30;60105;54.956;73.412;2022-10-31T16:07:01;-0.23;77.09
72202;SHT30;60105;54.956;73.412;2022-10-31T16:09:28;-0.30;77.15
72202;SHT30;60105;54.956;73.412;2022-10-31T16:11:56;-0.28;76.86
72202;SHT30;60105;54.956;73.412;2022-10-31T16:14:26;-0.26;76.73
72202;SHT30;60105;54.956;73.412;2022-10-31T16:16:57;-0.22;76.35
72202;SHT30;60105;54.956;73.412;2022-10-31T16:19:30;-0.32;76.75
72202;SHT30;60105;54.956;73.412;2022-10-31T16:22:11;-0.32;76.50
72202;SHT30;60105;54.956;73.412;2022-10-31T16:25:11;-0.28;76.38
72202;SHT30;60105;54.956;73.412;2022-10-31T16:27:37;-0.36;76.60
72202;SHT30;60105;54.956;73.412;2022-10-31T16:30:44;-0.35;76.28
72202;SHT30;60105;54.956;73.412;2022-10-31T16:33:31;-0.29;75.89
72202;SHT30;60105;54.956;73.412;2022-10-31T16:36:29;-0.35;75.76
72202;SHT30;60105;54.956;73.412;2022-10-31T16:38:59;-0.33;75.73
72202;SHT30;60105;54.956;73.412;2022-10-31T16:41:39;-0.42;75.99
72202;SHT30;60105;54.956;73.412;2022-10-31T16:44:26;-0.45;76.07
72202;SHT30;60105;54.956;73.412;2022-10-31T16:47:12;-0.40;75.78
72202;SHT30;60105;54.956;73.412;2022-10-31T16:49:39;-0.43;75.76
72202;SHT30;60105;54.956;73.412;2022-10-31T16:52:06;-0.37;75.41
72202;SHT30;60105;54.956;73.412;2022-10-31T16:54:32;-0.43;75.66
72202;SHT30;60105;54.956;73.412;2022-10-31T16:57:14;-0.54;75.94
72202;SHT30;60105;54.956;73.412;2022-10-31T16:59:52;-0.53;75.93
